createdAt,value
2023-02-11T09:19:38.116Z,0.10
2023-02-11T09:43:44.249Z,0.10
2023-02-11T09:46:16.099Z,0.00
2023-02-11T09:48:46.456Z,0.10
2023-02-11T09:51:47.319Z,0.05
2023-02-11T09:54:32.415Z,0.00
2023-02-11T09:57:01.646Z,0.10
2023-02-11T09:59:37.131Z,0.00
2023-02-11T10:02:24.278Z,0.08
2023-02-11T10:07:38.541Z,0.10
2023-02-11T10:10:39.856Z,0.10
2023-02-11T10:13:48.297Z,0.00
2023-02-11T10:16:59.514Z,0.80
2023-02-11T10:19:55.481Z,0.00
2023-02-11T10:23:12.948Z,0.10
2023-02-11T10:25:47.021Z,0.00
2023-02-11T10:28:25.266Z,0.22
2023-02-11T10:30:59.542Z,0.10
2023-02-11T10:33:49.880Z,0.00
2023-02-11T10:36:18.052Z,0.10
2023-02-11T10:38:46.057Z,0.10
2023-02-11T10:41:52.053Z,0.00
2023-02-11T10:44:31.566Z,0.00
2023-02-11T10:47:00.744Z,0.10
2023-02-11T10:50:03.447Z,0.08
2023-02-11T10:52:31.520Z,0.15
2023-02-11T10:55:10.449Z,0.00
2023-02-11T10:57:39.619Z,0.00
2023-02-11T11:00:23.551Z,0.10
2023-02-11T11:03:03.302Z,0.20
2023-02-11T11:05:58.826Z,0.00
2023-02-11T11:08:43.512Z,0.20
2023-02-11T11:11:29.937Z,0.00
2023-02-11T11:14:01.408Z,0.30
2023-02-11T11:16:29.876Z,0.10
2023-02-11T11:19:09.507Z,0.38
2023-02-11T11:21:57.743Z,0.00
2023-02-11T11:24:34.764Z,0.10
2023-02-11T11:27:02.828Z,0.00
2023-02-11T11:29:42.941Z,0.00
2023-02-11T11:32:20.733Z,0.00
2023-02-11T11:34:56.936Z,0.10
2023-02-11T11:37:30.410Z,0.10
2023-02-11T11:40:22.245Z,0.10
2023-02-11T11:43:15.895Z,0.00
2023-02-11T11:45:59.436Z,0.10
2023-02-11T11:48:29.146Z,0.10
2023-02-11T11:51:04.625Z,0.17
2023-02-11T11:53:45.718Z,0.10
2023-02-11T11:56:21.460Z,0.10
2023-02-11T11:58:49.250Z,0.13
2023-02-11T12:01:57.741Z,0.10
2023-02-11T12:05:08.565Z,0.15
2023-02-11T12:08:09.509Z,0.08
2023-02-11T12:10:44.145Z,0.00
2023-02-11T12:13:24.170Z,0.10
2023-02-11T12:16:07.361Z,0.10
2023-02-11T12:22:15.339Z,0.10
2023-02-11T12:25:00.572Z,0.10
2023-02-11T12:28:03.715Z,0.05
2023-02-11T12:30:45.579Z,0.28
2023-02-11T12:33:39.284Z,0.00
2023-02-11T12:36:20.734Z,0.10
2023-02-11T12:38:58.665Z,0.43
2023-02-11T12:41:46.989Z,0.25
2023-02-11T12:44:47.586Z,0.55
2023-02-11T12:47:29.729Z,0.10
2023-02-11T12:50:30.461Z,0.08
2023-02-11T12:53:23.918Z,0.68
2023-02-11T12:55:54.837Z,0.00
2023-02-11T12:58:35.662Z,0.10
2023-02-11T13:01:23.187Z,0.52
2023-02-11T13:04:00.252Z,0.20
2023-02-11T13:06:37.707Z,0.00
2023-02-11T13:09:06.323Z,0.10
2023-02-11T13:11:41.289Z,0.10
2023-02-11T13:14:25.055Z,0.10
2023-02-11T13:16:52.265Z,0.00
2023-02-11T13:19:34.851Z,0.30
2023-02-11T13:22:24.472Z,0.10
2023-02-11T13:25:10.075Z,0.63
2023-02-11T13:28:14.994Z,0.20
2023-02-11T13:30:47.597Z,0.20
2023-02-11T13:33:31.644Z,0.10
2023-02-11T13:35:59.061Z,0.30
2023-02-11T13:38:27.659Z,0.30
2023-02-11T13:41:17.449Z,0.10
2023-02-11T13:43:44.469Z,0.17
2023-02-11T13:46:14.075Z,0.45
2023-02-11T13:48:49.335Z,0.10
2023-02-11T13:51:17.788Z,0.22
2023-02-11T13:53:50.085Z,0.30
2023-02-11T13:56:40.863Z,0.30
2023-02-11T13:59:33.033Z,0.10
2023-02-11T14:02:18.719Z,0.10
2023-02-11T14:05:28.850Z,0.10
2023-02-11T14:08:30.531Z,0.10
2023-02-11T14:10:59.026Z,0.20
2023-02-11T14:13:30.701Z,0.20
2023-02-11T14:16:05.992Z,0.10
2023-02-11T14:18:45.306Z,0.10
2023-02-11T14:21:15.719Z,0.10
2023-02-11T14:23:43.101Z,0.10
2023-02-11T14:26:20.774Z,0.15
2023-02-11T14:28:59.802Z,0.10
2023-02-11T14:31:34.964Z,0.20
2023-02-11T14:34:36.309Z,0.10
2023-02-11T14:37:09.928Z,0.10
2023-02-11T14:39:57.849Z,0.00
2023-02-11T14:42:27.219Z,0.13
2023-02-11T14:44:56.627Z,0.10
2023-02-11T14:50:39.422Z,0.10
2023-02-11T14:54:00.936Z,0.10
2023-02-11T14:56:31.347Z,0.20
2023-02-11T14:58:58.877Z,0.32
2023-02-11T15:01:37.401Z,0.20
2023-02-11T15:04:05.832Z,0.38
2023-02-11T15:06:41.180Z,0.13
2023-02-11T15:09:33.474Z,0.10
2023-02-11T15:12:01.151Z,0.10
2023-02-11T15:14:37.539Z,0.20
2023-02-11T15:17:06.781Z,0.20
2023-02-11T15:19:38.194Z,0.85
2023-02-11T15:22:07.392Z,0.32
2023-02-11T15:24:39.629Z,0.28
2023-02-11T15:27:16.385Z,0.13
2023-02-11T15:29:49.612Z,0.22
2023-02-11T15:32:18.979Z,0.20
2023-02-11T15:34:46.527Z,0.20
2023-02-11T15:37:19.870Z,0.10
2023-02-11T15:39:47.000Z,0.10
2023-02-11T15:42:28.002Z,0.52
2023-02-11T15:45:09.410Z,0.10
2023-02-11T15:47:38.104Z,0.30
2023-02-11T15:50:06.036Z,0.20
2023-02-11T15:52:33.285Z,0.20
2023-02-11T15:55:06.975Z,0.20
2023-02-11T15:57:34.243Z,0.20
2023-02-11T16:00:07.573Z,0.10
2023-02-11T16:02:45.043Z,0.65
2023-02-11T16:05:44.541Z,0.10
2023-02-11T16:08:21.362Z,0.32
2023-02-11T16:11:24.700Z,0.30
2023-02-11T16:13:52.189Z,0.25
2023-02-11T16:16:23.763Z,0.10
2023-02-11T16:19:03.242Z,0.35
2023-02-11T16:21:39.297Z,0.38
2023-02-11T16:24:19.015Z,0.10
2023-02-11T16:26:51.353Z,0.17
2023-02-11T16:29:23.295Z,0.13
2023-02-11T16:31:50.597Z,0.40
2023-02-11T16:34:19.398Z,0.20
2023-02-11T16:36:47.225Z,0.30
2023-02-11T16:39:14.948Z,0.25
2023-02-11T16:41:41.973Z,0.28
2023-02-11T16:44:09.145Z,0.13
2023-02-11T16:46:36.971Z,0.30
2023-02-11T16:49:24.629Z,0.50
2023-02-11T16:51:53.050Z,0.28
2023-02-11T16:54:20.336Z,0.20
2023-02-11T16:56:47.485Z,0.20
2023-02-11T16:59:14.847Z,0.17
2023-02-11T17:01:42.478Z,0.30
2023-02-11T17:04:20.724Z,0.35
2023-02-11T17:06:51.208Z,0.10
2023-02-11T17:09:20.693Z,0.30
2023-02-11T17:11:47.929Z,0.30
2023-02-11T17:14:15.389Z,0.43
2023-02-11T17:16:43.081Z,0.17
2023-02-11T17:19:12.686Z,0.20
2023-02-11T17:21:43.828Z,0.30
2023-02-11T17:24:11.393Z,0.20
2023-02-11T17:26:38.910Z,0.20
2023-02-11T17:29:07.020Z,0.50
2023-02-11T17:31:34.525Z,0.20
2023-02-11T17:34:01.702Z,0.35
2023-02-11T17:36:31.240Z,0.40
2023-02-11T17:38:59.161Z,0.35
2023-02-11T17:41:26.737Z,0.30
2023-02-11T17:43:54.129Z,0.30
2023-02-11T17:46:24.801Z,0.40
2023-02-11T17:48:53.206Z,0.40
2023-02-11T17:51:30.362Z,0.43
2023-02-11T17:53:59.555Z,0.50
2023-02-11T17:56:27.165Z,0.30
2023-02-11T17:58:54.370Z,0.35
2023-02-11T18:02:16.072Z,0.47
2023-02-11T18:04:43.433Z,0.55
2023-02-11T18:07:10.710Z,0.20
2023-02-11T18:09:38.731Z,0.70
2023-02-11T18:12:06.762Z,0.38
2023-02-11T18:14:34.020Z,0.40
2023-02-11T18:17:01.158Z,0.70
2023-02-11T18:19:30.562Z,0.75
2023-02-11T18:22:00.964Z,0.40
2023-02-11T18:24:30.973Z,0.70
2023-02-11T18:26:58.104Z,0.40
2023-02-11T18:29:25.423Z,0.60
2023-02-11T18:31:55.578Z,0.65
2023-02-11T18:34:22.820Z,1.20
2023-02-11T18:36:49.920Z,0.50
2023-02-11T18:39:17.289Z,0.88
2023-02-11T18:41:44.279Z,0.82
2023-02-11T18:44:14.060Z,0.47
2023-02-11T18:46:41.207Z,0.40
2023-02-11T18:49:09.778Z,0.30
2023-02-11T18:51:36.949Z,0.30
2023-02-11T18:54:05.616Z,0.50
2023-02-11T18:56:38.772Z,0.43
2023-02-11T18:59:12.761Z,0.35
2023-02-11T19:01:47.157Z,0.80
2023-02-11T19:04:20.115Z,0.65
2023-02-11T19:06:48.478Z,0.80
2023-02-11T19:09:17.102Z,0.40
2023-02-11T19:11:47.217Z,0.50
2023-02-11T19:14:15.306Z,0.32
2023-02-11T19:16:43.404Z,0.43
2023-02-11T19:19:10.451Z,0.38
2023-02-11T19:21:37.569Z,0.20
2023-02-11T19:24:08.459Z,0.65
2023-02-11T19:26:35.740Z,0.50
2023-02-11T19:29:03.412Z,0.32
2023-02-11T19:31:32.380Z,0.55
2023-02-11T19:34:00.158Z,0.35
2023-02-11T19:36:27.371Z,1.10
2023-02-11T19:38:54.372Z,0.57
2023-02-11T19:41:23.190Z,1.85
2023-02-11T19:43:52.838Z,0.68
2023-02-11T19:46:21.115Z,1.48
2023-02-11T19:49:22.870Z,1.20
2023-02-11T19:51:50.874Z,0.68
2023-02-11T19:54:17.877Z,0.68
2023-02-11T19:56:45.561Z,0.57
2023-02-11T19:59:12.528Z,0.73
2023-02-11T20:01:40.067Z,0.40
2023-02-11T20:04:07.166Z,1.23
2023-02-11T20:06:34.527Z,0.90
2023-02-11T20:09:03.850Z,0.90
2023-02-11T20:11:31.189Z,1.38
2023-02-11T20:13:58.489Z,1.00
2023-02-11T20:16:44.606Z,1.13
2023-02-11T20:19:17.727Z,0.73
2023-02-11T20:21:47.585Z,0.77
2023-02-11T20:24:16.210Z,2.20
2023-02-11T20:26:43.455Z,3.22
2023-02-11T20:29:10.633Z,3.00
2023-02-11T20:32:37.783Z,2.78
2023-02-11T20:35:05.766Z,3.17
2023-02-11T20:37:33.091Z,2.10
2023-02-11T20:40:00.207Z,2.50
2023-02-11T20:42:27.380Z,2.20
2023-02-11T20:44:54.663Z,2.20
2023-02-11T20:47:22.681Z,2.50
2023-02-11T20:49:49.731Z,2.80
2023-02-11T20:52:16.869Z,2.80
2023-02-11T20:54:44.046Z,2.83
2023-02-11T20:57:11.303Z,2.20
2023-02-11T20:59:38.265Z,2.90
2023-02-11T21:02:05.664Z,3.05
2023-02-11T21:04:34.527Z,2.30
2023-02-11T21:07:01.815Z,2.20
2023-02-11T21:09:31.485Z,2.70
2023-02-11T21:11:58.739Z,2.38
2023-02-11T21:14:26.334Z,2.58
2023-02-11T21:16:53.516Z,4.13
2023-02-11T21:19:21.376Z,3.75
2023-02-11T21:21:48.492Z,4.25
2023-02-11T21:24:15.647Z,3.60
2023-02-11T21:26:42.681Z,3.55
2023-02-11T21:29:09.853Z,3.97
2023-02-11T21:31:39.567Z,3.75
2023-02-11T21:34:06.652Z,3.85
2023-02-11T21:36:33.864Z,3.63
2023-02-11T21:39:01.777Z,3.70
2023-02-11T21:41:28.818Z,3.08
2023-02-11T21:43:56.609Z,3.72
2023-02-11T21:46:23.732Z,3.53
2023-02-11T21:48:51.168Z,3.40
2023-02-11T21:51:25.627Z,3.20
2023-02-11T21:53:55.785Z,4.20
2023-02-11T21:56:23.048Z,3.30
2023-02-11T21:58:52.392Z,4.25
2023-02-11T22:01:24.183Z,3.58
2023-02-11T22:03:51.285Z,3.75
2023-02-11T22:06:21.425Z,4.18
2023-02-11T22:08:49.675Z,4.28
2023-02-11T22:11:16.972Z,4.70
2023-02-11T22:13:44.420Z,3.97
2023-02-11T22:16:14.072Z,4.50
2023-02-11T22:18:41.420Z,3.72
2023-02-11T22:21:14.319Z,3.85
2023-02-11T22:23:41.401Z,4.13
2023-02-11T22:26:18.557Z,3.92
2023-02-11T22:28:46.354Z,4.00
2023-02-11T22:31:18.996Z,4.85
2023-02-11T22:33:46.349Z,4.15
2023-02-11T22:36:39.132Z,4.50
2023-02-11T22:39:07.828Z,5.43
2023-02-11T22:41:35.604Z,5.03
2023-02-11T22:44:02.590Z,5.00
2023-02-11T22:46:29.697Z,5.70
2023-02-11T22:48:57.117Z,5.07
2023-02-11T22:51:25.568Z,4.72
2023-02-11T22:53:53.920Z,5.07
2023-02-11T22:56:20.958Z,4.60
2023-02-11T22:58:48.299Z,5.15
2023-02-11T23:01:15.577Z,4.70
2023-02-11T23:03:42.710Z,4.60
2023-02-11T23:06:10.364Z,4.97
2023-02-11T23:08:39.041Z,3.97
2023-02-11T23:11:12.734Z,5.10
2023-02-11T23:13:40.912Z,4.45
2023-02-11T23:16:09.738Z,4.80
2023-02-11T23:18:37.526Z,4.00
2023-02-11T23:21:16.590Z,4.55
2023-02-11T23:23:43.785Z,4.70
2023-02-11T23:26:15.504Z,4.85
2023-02-11T23:28:46.785Z,5.72
2023-02-11T23:31:25.457Z,5.60
2023-02-11T23:33:53.444Z,4.82
2023-02-11T23:36:20.740Z,5.20
2023-02-11T23:38:48.992Z,5.13
2023-02-11T23:41:17.386Z,4.55
2023-02-11T23:43:44.750Z,4.68
2023-02-11T23:46:12.923Z,5.50
2023-02-11T23:48:40.530Z,4.85
2023-02-11T23:51:11.994Z,5.30
2023-02-11T23:53:40.615Z,4.85
2023-02-11T23:56:09.268Z,5.35
2023-02-11T23:58:36.426Z,5.53
